Time;durP1;ratioP1;P1;durP2;ratioP2;P2;SDS_P1;SDS_P2;PMS_P1;PMS_P2;Temp;Humidity;BMP_temperature;BMP_pressure;BME280_temperature;BME280_humidity;BME280_pressure;Samples;Min_cycle;Max_cycle;Signal;HPM_P1;HPM_P2
2021/10/22 00:01:10;;;;;;;8.73;2.10;;;;;;;6.42;100.00;101373.34;10611782;27;20051;-58
2021/10/22 00:06:13;;;;;;;16.17;2.30;;;;;;;6.28;100.00;101362.50;10629932;27;20039;-58
2021/10/22 00:11:15;;;;;;;6.72;2.35;;;;;;;6.29;100.00;101359.00;10610966;27;20047;-59
2021/10/22 00:16:18;;;;;;;6.70;1.77;;;;;;;6.44;100.00;101370.66;10629356;27;20062;-59
2021/10/22 00:21:21;;;;;;;7.35;1.70;;;;;;;6.46;100.00;101359.31;10628762;27;20051;-59
2021/10/22 00:26:23;;;;;;;7.45;1.95;;;;;;;6.27;100.00;101353.84;10628557;27;20398;-58
2021/10/22 00:31:26;;;;;;;8.05;1.90;;;;;;;6.11;100.00;101356.03;10628307;27;20062;-58
2021/10/22 00:36:28;;;;;;;6.05;1.80;;;;;;;6.40;100.00;101350.84;10628314;27;20049;-59
2021/10/22 00:41:32;;;;;;;7.68;2.58;;;;;;;6.46;100.00;101348.91;10628206;27;20047;-58
2021/10/22 00:46:37;;;;;;;15.48;1.85;;;;;;;6.17;100.00;101349.81;10627683;27;20051;-61
2021/10/22 00:51:40;;;;;;;13.50;2.50;;;;;;;6.07;100.00;101345.78;10628209;27;20044;-59
2021/10/22 00:56:42;;;;;;;11.38;2.50;;;;;;;5.99;100.00;101346.00;10609093;27;20403;-59
2021/10/22 01:01:45;;;;;;;15.75;4.05;;;;;;;6.00;100.00;101344.25;10627265;27;20050;-59
2021/10/22 01:06:48;;;;;;;11.25;2.22;;;;;;;6.04;100.00;101341.53;10626839;27;20440;-58
2021/10/22 01:11:50;;;;;;;13.55;2.13;;;;;;;6.02;100.00;101355.44;10626576;27;20051;-58
2021/10/22 01:16:52;;;;;;;9.77;2.35;;;;;;;6.04;100.00;101343.28;10626628;27;20047;-59
2021/10/22 01:21:55;;;;;;;11.45;2.08;;;;;;;6.00;100.00;101347.72;10626252;27;20039;-60
2021/10/22 01:26:57;;;;;;;12.20;2.65;;;;;;;6.01;100.00;101335.56;10625938;27;20054;-59
2021/10/22 01:32:00;;;;;;;7.60;1.92;;;;;;;5.89;100.00;101332.41;10625758;27;20068;-58
2021/10/22 01:37:02;;;;;;;14.48;3.67;;;;;;;5.94;100.00;101314.06;10626323;27;20051;-59
2021/10/22 01:42:04;;;;;;;6.70;1.92;;;;;;;5.94;100.00;101320.13;10623900;28;20043;-58
2021/10/22 01:47:07;;;;;;;7.50;2.33;;;;;;;5.88;100.00;101314.25;10623852;28;20054;-59
2021/10/22 01:52:10;;;;;;;8.75;2.08;;;;;;;5.94;100.00;101314.91;10623772;28;20043;-58
2021/10/22 01:57:12;;;;;;;8.57;2.60;;;;;;;5.79;100.00;101324.94;10623446;28;20486;-59
2021/10/22 02:02:14;;;;;;;13.77;2.60;;;;;;;5.80;100.00;101332.69;10623470;28;20383;-59
2021/10/22 02:07:17;;;;;;;12.10;2.20;;;;;;;5.79;100.00;101336.16;10622894;28;20043;-59
2021/10/22 02:12:19;;;;;;;10.43;3.33;;;;;;;5.68;100.00;101333.00;10623060;28;20043;-58
2021/10/22 02:17:22;;;;;;;9.73;2.92;;;;;;;5.73;100.00;101337.19;10622824;28;20047;-57
2021/10/22 02:22:24;;;;;;;10.93;2.53;;;;;;;5.52;100.00;101323.06;10622499;28;20046;-59
2021/10/22 02:27:28;;;;;;;14.43;3.63;;;;;;;5.57;100.00;101320.34;10622902;28;20147;-59
2021/10/22 02:32:50;;;;;;;16.33;2.85;;;;;;;5.63;100.00;101322.78;10623144;28;20047;-58
2021/10/22 02:37:53;;;;;;;15.18;3.10;;;;;;;5.62;100.00;101315.03;10585265;27;1103429;-59
2021/10/22 02:42:55;;;;;;;13.88;2.40;;;;;;;5.68;100.00;101302.72;10632694;27;20054;-57
2021/10/22 02:47:57;;;;;;;11.48;2.58;;;;;;;5.78;100.00;101298.06;10632329;27;20402;-57
2021/10/22 02:53:01;;;;;;;14.68;3.63;;;;;;;5.52;100.00;101293.66;10632479;27;20055;-58
2021/10/22 02:58:03;;;;;;;14.77;3.50;;;;;;;5.63;100.00;101286.41;10632287;27;20055;-60
2021/10/22 03:03:06;;;;;;;10.30;3.03;;;;;;;5.72;100.00;101282.69;10632372;27;20058;-59
2021/10/22 03:08:09;;;;;;;13.27;3.25;;;;;;;5.81;100.00;101284.16;10631791;27;20051;-57
2021/10/22 03:13:11;;;;;;;12.75;3.92;;;;;;;5.39;100.00;101280.97;10631934;27;20050;-58
2021/10/22 03:18:13;;;;;;;10.88;4.03;;;;;;;5.28;100.00;101284.78;10631536;27;20055;-58
2021/10/22 03:23:16;;;;;;;11.73;3.67;;;;;;;5.47;100.00;101287.72;10632027;27;20055;-59
2021/10/22 03:28:18;;;;;;;12.80;3.83;;;;;;;5.58;100.00;101288.25;10630991;27;20051;-58
2021/10/22 03:33:20;;;;;;;16.15;5.13;;;;;;;5.51;100.00;101286.72;10631492;27;20043;-57
2021/10/22 03:38:22;;;;;;;13.50;4.55;;;;;;;5.36;100.00;101283.69;10630566;27;20060;-59
2021/10/22 03:43:25;;;;;;;21.35;5.60;;;;;;;5.40;100.00;101282.69;10630365;27;20505;-58
2021/10/22 03:48:27;;;;;;;20.58;5.00;;;;;;;5.28;100.00;101269.19;10629774;27;20043;-58
2021/10/22 03:53:30;;;;;;;12.07;3.80;;;;;;;5.28;100.00;101262.28;10630277;27;20096;-58
2021/10/22 03:58:33;;;;;;;12.82;3.72;;;;;;;5.42;100.00;101251.50;10629566;27;20058;-60
2021/10/22 04:03:36;;;;;;;15.95;3.72;;;;;;;5.46;100.00;101240.09;10629998;27;20070;-59
2021/10/22 04:08:38;;;;;;;16.33;3.95;;;;;;;5.39;100.00;101246.38;10629394;27;20043;-57
2021/10/22 04:13:41;;;;;;;18.73;4.10;;;;;;;5.24;100.00;101262.41;10629346;27;20054;-56
2021/10/22 04:18:43;;;;;;;17.23;4.00;;;;;;;5.26;100.00;101266.66;10628773;27;20096;-57
2021/10/22 04:23:45;;;;;;;20.98;4.43;;;;;;;5.28;100.00;101269.19;10628944;27;20136;-58
2021/10/22 04:28:48;;;;;;;11.38;2.70;;;;;;;5.28;100.00;101264.00;10628378;27;20490;-61
2021/10/22 04:33:50;;;;;;;16.88;4.00;;;;;;;5.32;100.00;101283.81;10628374;27;20483;-60
2021/10/22 04:44:15;;;;;;;11.73;3.30;;;;;;;5.44;100.00;101301.63;10628046;27;20057;-60
2021/10/22 04:49:17;;;;;;;18.50;4.45;;;;;;;5.48;100.00;101308.47;10627680;27;20047;-60
2021/10/22 04:54:19;;;;;;;17.23;4.18;;;;;;;5.70;100.00;101310.44;10627797;27;20050;-60
2021/10/22 04:59:22;;;;;;;12.00;4.05;;;;;;;5.64;100.00;101302.84;10627170;27;20043;-60
2021/10/22 05:04:24;;;;;;;16.10;3.65;;;;;;;5.53;100.00;101301.41;10608626;27;20039;-60
2021/10/22 05:09:26;;;;;;;15.77;4.07;;;;;;;5.53;100.00;101310.91;10627308;27;20046;-61
2021/10/22 05:14:29;;;;;;;18.63;3.45;;;;;;;5.54;100.00;101310.03;10626664;27;20404;-60
2021/10/22 05:19:32;;;;;;;12.57;3.88;;;;;;;5.53;100.00;101319.59;10626354;27;20054;-61
2021/10/22 05:24:34;;;;;;;14.68;4.70;;;;;;;5.57;100.00;101308.19;10626793;27;20046;-60
2021/10/22 05:29:36;;;;;;;14.82;4.35;;;;;;;5.36;100.00;101301.88;10625937;27;20151;-60
2021/10/22 05:34:39;;;;;;;9.20;3.63;;;;;;;5.55;100.00;101291.81;10608265;27;20047;-59
2021/10/22 05:39:41;;;;;;;18.98;3.67;;;;;;;5.53;100.00;101287.53;10625533;27;20502;-61
2021/10/22 05:44:44;;;;;;;17.05;4.25;;;;;;;5.48;100.00;101271.22;10625649;27;20047;-60
2021/10/22 05:49:46;;;;;;;16.48;4.45;;;;;;;5.60;100.00;101260.50;10625222;27;20046;-61
2021/10/22 05:54:48;;;;;;;20.35;4.93;;;;;;;5.42;100.00;101243.69;10625363;27;20043;-59
2021/10/22 05:59:51;;;;;;;11.88;4.13;;;;;;;5.58;100.00;101238.91;10625125;27;20043;-62
2021/10/22 06:04:53;;;;;;;13.20;3.80;;;;;;;5.54;100.00;101238.16;10625253;27;20046;-59
2021/10/22 06:09:56;;;;;;;18.13;4.13;;;;;;;5.45;100.00;101242.78;10607271;27;20142;-60
2021/10/22 06:14:58;;;;;;;15.35;4.70;;;;;;;5.45;100.00;101253.16;10624523;27;20397;-60
2021/10/22 06:20:09;;;;;;;16.08;5.28;;;;;;;5.64;100.00;101243.94;10624490;27;20050;-59
2021/10/22 06:25:13;;;;;;;13.32;3.85;;;;;;;5.54;100.00;101245.09;10607496;28;20475;-59
2021/10/22 06:30:16;;;;;;;24.65;4.57;;;;;;;5.57;100.00;101248.44;10624204;28;20047;-59
2021/10/22 06:35:18;;;;;;;14.35;3.78;;;;;;;5.73;100.00;101232.41;10624742;28;20047;-59
2021/10/22 06:40:21;;;;;;;11.90;3.55;;;;;;;5.84;100.00;101240.72;10623430;28;20059;-60
2021/10/22 06:45:23;;;;;;;18.10;4.53;;;;;;;5.83;100.00;101239.00;10624163;28;20120;-60
2021/10/22 06:50:26;;;;;;;14.40;3.72;;;;;;;6.00;100.00;101248.94;10623728;28;20051;-60
2021/10/22 06:55:28;;;;;;;18.02;4.38;;;;;;;6.05;100.00;101256.59;10623951;28;20039;-61
2021/10/22 07:00:31;;;;;;;17.60;3.80;;;;;;;6.39;100.00;101261.56;10623593;28;20053;-61
2021/10/22 07:10:39;;;;;;;17.77;4.82;;;;;;;6.31;100.00;101280.03;10623819;28;20055;-59
2021/10/22 07:15:42;;;;;;;10.52;3.85;;;;;;;6.39;100.00;101273.72;10623683;28;20044;-59
2021/10/22 07:20:50;;;;;;;20.08;4.20;;;;;;;6.45;100.00;101270.94;10623699;28;20057;-63
2021/10/22 07:25:52;;;;;;;12.02;4.10;;;;;;;6.63;100.00;101272.06;10628099;27;20368;-62
2021/10/22 07:30:54;;;;;;;14.43;3.60;;;;;;;6.67;100.00;101277.13;10630818;27;20505;-60
2021/10/22 07:35:57;;;;;;;6.65;3.17;;;;;;;6.82;100.00;101278.34;10631167;27;20395;-59
2021/10/22 07:41:00;;;;;;;10.52;3.08;;;;;;;6.88;100.00;101287.72;10630583;27;20054;-61
2021/10/22 07:46:03;;;;;;;14.75;3.75;;;;;;;6.92;100.00;101289.31;10630497;27;20043;-60
2021/10/22 07:51:06;;;;;;;10.25;3.40;;;;;;;7.04;100.00;101301.03;10630361;27;20046;-60
2021/10/22 07:56:09;;;;;;;13.52;3.58;;;;;;;7.19;100.00;101291.84;10630028;27;20054;-61
2021/10/22 08:01:11;;;;;;;14.60;4.13;;;;;;;7.05;100.00;101297.53;10629773;27;20047;-60
2021/10/22 08:06:14;;;;;;;15.02;3.42;;;;;;;7.37;100.00;101303.38;10629647;27;20043;-62
2021/10/22 08:11:16;;;;;;;13.15;3.65;;;;;;;7.48;100.00;101300.38;10611104;27;20091;-60
2021/10/22 08:16:19;;;;;;;12.02;3.88;;;;;;;7.41;100.00;101298.00;10629361;27;20043;-58
2021/10/22 08:21:33;;;;;;;7.45;2.95;;;;;;;7.54;100.00;101295.78;10629056;27;20051;-57
2021/10/22 08:26:44;;;;;;;10.23;3.03;;;;;;;7.80;100.00;101289.63;10628923;27;20126;-58
2021/10/22 08:31:56;;;;;;;;;;;;;;;9.59;98.69;101305.75;10629645;27;20083;-61
2021/10/22 08:36:58;;;;;;;18.67;3.50;;;;;;;8.26;100.00;101305.22;10626989;27;19926;-59
2021/10/22 08:42:01;;;;;;;9.40;3.60;;;;;;;8.14;100.00;101311.78;10627973;27;20055;-58
2021/10/22 08:47:04;;;;;;;13.18;2.95;;;;;;;8.18;100.00;101313.34;10609716;27;20402;-59
2021/10/22 08:52:07;;;;;;;8.52;3.50;;;;;;;8.05;100.00;101317.34;10609520;27;20043;-59
2021/10/22 08:57:09;;;;;;;14.27;3.17;;;;;;;8.78;100.00;101307.53;10627836;27;20047;-58
2021/10/22 09:02:21;;;;;;;14.55;4.38;;;;;;;10.57;89.64;101313.41;10627228;27;20047;-58
2021/10/22 09:07:38;;;;;;;10.98;2.55;;;;;;;12.19;84.72;101304.13;10627398;27;20047;-59
2021/10/22 09:12:56;;;;;;;15.63;3.45;;;;;;;10.93;88.04;101306.41;10608562;27;20051;-57
2021/10/22 09:18:05;;;;;;;10.75;3.50;;;;;;;10.70;86.62;101308.41;10626558;27;20058;-58
2021/10/22 09:23:07;;;;;;;13.27;3.25;;;;;;;9.85;91.01;101312.41;10626174;27;20506;-59
2021/10/22 09:28:12;;;;;;;10.10;3.35;;;;;;;12.42;85.65;101298.41;10626239;27;20043;-59
2021/10/22 09:33:18;;;;;;;9.77;2.67;;;;;;;11.57;82.48;101322.34;10626052;27;20055;-60
2021/10/22 09:38:29;;;;;;;16.25;3.38;;;;;;;13.04;79.08;101315.00;10626200;27;20062;-59
2021/10/22 09:43:41;;;;;;;10.97;3.37;;;;;;;12.63;80.90;101317.34;10625864;27;20049;-58
2021/10/22 09:49:02;;;;;;;6.85;1.88;;;;;;;13.02;79.61;101325.59;10625150;27;20393;-60
2021/10/22 09:54:08;;;;;;;9.68;2.45;;;;;;;11.41;83.66;101320.50;10625251;27;20047;-59
2021/10/22 09:59:24;;;;;;;7.03;2.10;;;;;;;11.55;85.81;101335.53;10625584;27;20043;-58
2021/10/22 10:04:28;;;;;;;8.48;2.28;;;;;;;10.70;89.51;101352.06;10624813;27;20486;-60
2021/10/22 10:09:40;;;;;;;13.88;2.08;;;;;;;11.53;91.35;101346.09;10625163;27;20043;-60
2021/10/22 10:14:43;;;;;;;8.02;2.30;;;;;;;10.51;92.99;101365.22;10624658;27;20051;-58
2021/10/22 10:19:50;;;;;;;4.40;2.05;;;;;;;10.96;94.51;101350.78;10624618;27;20058;-61
2021/10/22 10:24:58;;;;;;;6.82;2.33;;;;;;;10.79;93.09;101367.31;10606309;27;20058;-58
2021/10/22 10:30:04;;;;;;;8.63;2.10;;;;;;;10.64;92.54;101360.22;10624205;28;20047;-59
2021/10/22 10:35:14;;;;;;;10.80;2.50;;;;;;;10.35;93.31;101367.72;10625219;28;20051;-59
2021/10/22 10:40:27;;;;;;;5.38;1.70;;;;;;;10.66;94.20;101369.72;10623523;28;20063;-58
2021/10/22 10:45:30;;;;;;;6.82;1.80;;;;;;;11.13;90.11;101374.38;10624403;28;20399;-57
2021/10/22 10:50:40;;;;;;;8.10;2.42;;;;;;;12.78;87.42;101368.16;10624036;28;20520;-59
2021/10/22 10:55:48;;;;;;;4.85;1.33;;;;;;;13.33;79.99;101371.13;10623664;28;20050;-60
2021/10/22 11:00:59;;;;;;;2.60;2.00;;;;;;;12.15;82.99;101387.44;10628912;27;20047;-58
2021/10/22 11:06:04;;;;;;;;;;;;;;;10.90;91.57;101386.00;10615321;27;20039;-58
2021/10/22 11:11:11;;;;;;;9.90;2.42;;;;;;;12.72;89.41;101383.44;10631678;27;19938;-58
2021/10/22 11:16:27;;;;;;;5.78;1.50;;;;;;;13.73;80.69;101382.75;10632255;27;20054;-62
2021/10/22 11:21:41;;;;;;;7.70;2.17;;;;;;;13.21;82.85;101383.19;10631473;27;20051;-58
2021/10/22 11:27:02;;;;;;;4.38;1.60;;;;;;;11.67;93.68;101403.06;10613671;27;20043;-59
2021/10/22 11:32:11;;;;;;;7.00;1.48;;;;;;;11.23;95.59;101400.97;10630813;27;20581;-60
2021/10/22 11:37:16;;;;;;;4.35;1.58;;;;;;;11.07;100.00;101390.38;10630875;27;20054;-59
2021/10/22 11:42:28;;;;;;;5.55;1.50;;;;;;;10.86;100.00;101394.94;10630455;27;20055;-60
2021/10/22 11:47:40;;;;;;;5.13;1.52;;;;;;;10.75;100.00;101395.44;10630564;27;20047;-59
2021/10/22 11:52:42;;;;;;;6.78;1.80;;;;;;;10.86;100.00;101396.69;10629977;27;20051;-59
2021/10/22 11:57:44;;;;;;;15.43;1.83;;;;;;;10.59;100.00;101412.81;10630353;27;20135;-58
2021/10/22 12:02:48;;;;;;;9.55;1.95;;;;;;;10.67;100.00;101415.91;10611572;27;20061;-60
2021/10/22 12:07:54;;;;;;;8.95;2.55;;;;;;;10.95;100.00;101398.88;10612162;27;20134;-60
2021/10/22 12:12:57;;;;;;;5.78;2.03;;;;;;;12.41;100.00;101409.63;10628986;27;20402;-59
2021/10/22 12:18:06;;;;;;;7.55;1.90;;;;;;;12.00;98.42;101417.13;10629324;27;20054;-60
2021/10/22 12:23:13;;;;;;;5.47;1.80;;;;;;;13.18;94.77;101433.34;10629733;27;20043;-61
2021/10/22 12:28:16;;;;;;;9.13;2.22;;;;;;;11.72;99.09;101434.31;10628953;27;20124;-60
2021/10/22 12:33:18;;;;;;;6.45;1.83;;;;;;;12.47;95.05;101439.94;10628751;27;20051;-58
2021/10/22 12:38:33;;;;;;;11.75;2.30;;;;;;;12.64;90.28;101454.78;10610988;27;20062;-58
2021/10/22 12:43:37;;;;;;;7.80;2.33;;;;;;;12.34;91.90;101454.69;10628481;27;20051;-59
2021/10/22 12:48:47;;;;;;;10.38;3.45;;;;;;;11.91;95.24;101455.22;10609951;27;20047;-59
2021/10/22 12:53:51;;;;;;;15.18;3.30;;;;;;;11.79;97.11;101454.03;10627490;27;20055;-60
2021/10/22 12:59:02;;;;;;;10.35;3.00;;;;;;;11.34;98.65;101448.44;10628022;27;20043;-59
2021/10/22 13:04:12;;;;;;;9.90;3.03;;;;;;;11.81;97.22;101457.44;10627388;27;20043;-58
2021/10/22 13:25:22;;;;;;;11.60;3.10;;;;;;;11.65;97.87;101469.63;10626091;27;20049;-58
2021/10/22 13:30:35;;;;;;;11.55;2.78;;;;;;;11.23;98.19;101473.50;10626054;27;20047;-58
2021/10/22 13:35:37;;;;;;;12.63;2.08;;;;;;;10.90;100.00;101487.31;10626119;27;20410;-59
2021/10/22 13:40:40;;;;;;;14.02;2.75;;;;;;;10.98;100.00;101495.66;10625357;27;20406;-59
2021/10/22 13:45:44;;;;;;;15.45;2.75;;;;;;;10.89;100.00;101510.06;10625867;27;20051;-58
2021/10/22 13:50:48;;;;;;;14.15;3.72;;;;;;;10.76;100.00;101517.63;10607166;27;20074;-59
2021/10/22 13:55:52;;;;;;;13.15;2.67;;;;;;;10.81;100.00;101517.44;10625540;27;20039;-58
2021/10/22 14:00:59;;;;;;;7.72;2.30;;;;;;;10.78;100.00;101518.41;10625016;27;20518;-61
2021/10/22 14:06:03;;;;;;;13.73;2.50;;;;;;;10.84;100.00;101527.75;10625377;27;20039;-58
2021/10/22 14:11:08;;;;;;;13.48;2.53;;;;;;;10.86;100.00;101540.75;10625206;27;20043;-60
2021/10/22 14:32:14;;;;;;;4.75;1.60;;;;;;;9.38;100.00;101591.56;10625460;27;20065;-59
2021/10/22 14:37:17;;;;;;;4.80;1.25;;;;;;;9.33;100.00;101596.13;10633272;27;20085;-59
2021/10/22 14:42:19;;;;;;;9.20;1.83;;;;;;;9.29;100.00;101601.47;10633046;27;20051;-59
2021/10/22 14:47:25;;;;;;;5.28;1.85;;;;;;;9.34;100.00;101622.22;10633375;27;20043;-58
2021/10/22 14:52:41;;;;;;;5.18;1.38;;;;;;;9.42;100.00;101632.38;10632481;27;20502;-58
2021/10/22 14:57:43;;;;;;;6.10;2.30;;;;;;;9.66;100.00;101652.28;10633040;27;20070;-59
2021/10/22 15:02:45;;;;;;;8.25;1.75;;;;;;;9.49;100.00;101652.13;10632065;27;20051;-58
2021/10/22 15:07:48;;;;;;;10.07;2.58;;;;;;;9.59;100.00;101657.84;10632605;27;20057;-59
2021/10/22 15:12:50;;;;;;;4.40;1.65;;;;;;;9.81;100.00;101670.91;10631731;27;20050;-57
2021/10/22 15:17:53;;;;;;;10.38;2.30;;;;;;;9.73;100.00;101681.66;10613072;27;20055;-57
2021/10/22 15:22:55;;;;;;;10.70;2.55;;;;;;;9.67;100.00;101685.38;10631759;27;20051;-58
2021/10/22 15:27:58;;;;;;;9.85;2.30;;;;;;;9.54;100.00;101699.00;10631255;27;20047;-58
2021/10/22 15:33:00;;;;;;;11.13;2.25;;;;;;;9.73;100.00;101702.59;10630862;27;20478;-60
2021/10/22 15:38:02;;;;;;;5.43;2.10;;;;;;;9.51;100.00;101710.41;10630513;27;20043;-61
2021/10/22 15:43:05;;;;;;;8.75;2.22;;;;;;;9.46;100.00;101708.00;10631070;27;20137;-60
2021/10/22 15:48:08;;;;;;;8.30;2.30;;;;;;;9.28;100.00;101714.78;10629787;27;20402;-60
2021/10/22 15:53:10;;;;;;;6.93;2.42;;;;;;;9.27;100.00;101730.50;10630166;27;20043;-59
2021/10/22 15:58:12;;;;;;;8.95;2.30;;;;;;;9.42;100.00;101737.78;10630120;27;20047;-59
2021/10/22 16:03:16;;;;;;;9.88;2.28;;;;;;;9.27;100.00;101751.41;10611286;27;20043;-58
2021/10/22 16:08:40;;;;;;;10.93;2.83;;;;;;;9.27;100.00;101751.41;10629516;27;20490;-58
2021/10/22 16:19:05;;;;;;;6.78;2.17;;;;;;;9.02;100.00;101769.72;10608144;27;20050;-58
2021/10/22 16:24:07;;;;;;;9.63;1.73;;;;;;;9.04;100.00;101771.38;10628720;27;20058;-59
2021/10/22 16:29:10;;;;;;;5.15;1.58;;;;;;;9.16;100.00;101777.91;10628385;27;20532;-58
2021/10/22 16:39:34;;;;;;;9.98;3.22;;;;;;;9.04;100.00;101805.31;10613164;27;20069;-58
2021/10/22 16:44:39;;;;;;;12.50;3.25;;;;;;;9.08;100.00;101816.53;10628086;27;20520;-60
2021/10/22 16:49:41;;;;;;;10.15;2.20;;;;;;;9.03;100.00;101828.91;10627688;27;20054;-60
2021/10/22 16:54:44;;;;;;;10.40;2.50;;;;;;;8.92;100.00;101840.56;10627733;27;20051;-59
2021/10/22 16:59:47;;;;;;;8.85;2.88;;;;;;;8.92;100.00;101850.16;10626480;27;20047;-59
2021/10/22 17:04:49;;;;;;;11.45;2.45;;;;;;;9.01;100.00;101855.09;10627317;27;20039;-60
2021/10/22 17:09:56;;;;;;;21.70;4.03;;;;;;;8.92;100.00;101856.22;10627032;27;20053;-59
2021/10/22 17:14:58;;;;;;;7.07;2.35;;;;;;;8.89;100.00;101869.41;10627259;27;20054;-59
2021/10/22 17:20:01;;;;;;;13.32;2.55;;;;;;;8.93;100.00;101871.00;10626550;27;20055;-60
2021/10/22 17:25:08;;;;;;;8.68;2.95;;;;;;;9.05;100.00;101882.78;10626452;27;20049;-60
2021/10/22 17:30:11;;;;;;;9.95;3.60;;;;;;;8.83;100.00;101890.50;10626214;27;20134;-60
2021/10/22 17:35:14;;;;;;;8.32;3.10;;;;;;;8.82;100.00;101891.38;10626171;27;20494;-60
2021/10/22 17:40:17;;;;;;;11.80;3.50;;;;;;;8.79;100.00;101908.91;10625813;27;20062;-60
2021/10/22 17:45:19;;;;;;;12.75;4.55;;;;;;;8.88;100.00;101916.47;10625882;27;20039;-60
2021/10/22 17:50:22;;;;;;;11.60;2.63;;;;;;;8.53;100.00;101921.88;10625925;27;20058;-59
2021/10/22 17:55:25;;;;;;;20.75;3.55;;;;;;;8.54;100.00;101936.66;10625550;27;20046;-60
2021/10/22 18:00:27;;;;;;;8.43;2.50;;;;;;;8.66;100.00;101945.03;10625388;27;20429;-59
2021/10/22 18:05:30;;;;;;;10.48;3.80;;;;;;;8.51;100.00;101954.19;10625212;27;20055;-60
2021/10/22 18:10:32;;;;;;;11.10;3.53;;;;;;;8.60;100.00;101960.88;10624056;27;20051;-59
2021/10/22 18:15:35;;;;;;;8.13;3.08;;;;;;;8.59;100.00;101972.19;10624840;27;20054;-59
2021/10/22 18:20:39;;;;;;;10.13;3.22;;;;;;;8.52;100.00;101963.69;10624481;27;20483;-59
2021/10/22 18:25:42;;;;;;;10.15;2.60;;;;;;;8.58;100.00;101967.91;10624900;27;20039;-59
2021/10/22 18:30:44;;;;;;;8.40;2.70;;;;;;;8.34;100.00;101981.59;10605997;27;20049;-59
2021/10/22 18:35:47;;;;;;;11.65;2.88;;;;;;;8.19;100.00;101987.25;10625189;28;20051;-59
2021/10/22 18:40:49;;;;;;;10.98;2.97;;;;;;;8.18;100.00;101990.75;10605412;28;20529;-59
2021/10/22 18:45:54;;;;;;;13.68;2.45;;;;;;;8.07;100.00;101996.28;10624124;28;20402;-59
2021/10/22 18:50:56;;;;;;;10.10;2.70;;;;;;;7.95;100.00;102012.25;10623869;28;20047;-59
2021/10/22 18:55:59;;;;;;;15.02;4.35;;;;;;;7.84;100.00;102024.72;10624051;28;20047;-58
2021/10/22 19:01:02;;;;;;;15.73;3.58;;;;;;;8.12;100.00;102023.09;10623634;28;20055;-60
2021/10/22 19:06:15;;;;;;;11.38;2.85;;;;;;;8.10;100.00;102017.06;10623863;28;20047;-60
2021/10/22 19:11:18;;;;;;;13.65;3.35;;;;;;;7.99;100.00;102022.56;10623960;28;20047;-60
2021/10/22 19:16:21;;;;;;;19.17;3.58;;;;;;;7.77;100.00;102032.69;10623843;28;20047;-59
2021/10/22 19:21:26;;;;;;;11.32;3.58;;;;;;;7.80;100.00;102044.78;10628084;27;20135;-59
2021/10/22 19:26:28;;;;;;;13.50;3.83;;;;;;;7.60;100.00;102042.72;10631281;27;20043;-59
2021/10/22 19:31:32;;;;;;;14.15;4.13;;;;;;;7.64;100.00;102052.16;10630907;27;20050;-59
2021/10/22 19:36:34;;;;;;;12.13;3.72;;;;;;;7.50;100.00;102054.22;10630911;27;20510;-59
2021/10/22 19:41:37;;;;;;;14.38;4.63;;;;;;;7.51;100.00;102067.22;10631039;27;20077;-60
2021/10/22 19:46:40;;;;;;;12.40;3.47;;;;;;;7.47;100.00;102069.97;10630714;27;20050;-59
2021/10/22 19:51:42;;;;;;;15.52;4.32;;;;;;;7.37;100.00;102064.97;10630350;27;20043;-59
2021/10/22 19:56:45;;;;;;;10.93;4.00;;;;;;;7.44;100.00;102082.16;10630259;27;20088;-60
2021/10/22 20:01:50;;;;;;;21.67;4.45;;;;;;;7.33;100.00;102083.31;10630127;27;20051;-59
2021/10/22 20:06:53;;;;;;;13.57;3.33;;;;;;;7.48;100.00;102090.78;10629757;27;20565;-59
2021/10/22 20:11:56;;;;;;;8.52;3.47;;;;;;;7.38;100.00;102091.88;10629790;27;20043;-59
2021/10/22 20:16:58;;;;;;;29.90;15.02;;;;;;;7.09;100.00;102106.41;10611242;27;20392;-59
2021/10/22 20:22:01;;;;;;;12.57;4.05;;;;;;;7.30;100.00;102117.28;10629209;27;20070;-58
2021/10/22 20:27:03;;;;;;;16.40;4.65;;;;;;;7.24;100.00;102121.69;10610923;27;20061;-60
2021/10/22 20:32:07;;;;;;;17.80;6.85;;;;;;;7.34;100.00;102135.38;10628449;27;20051;-60
2021/10/22 20:37:09;;;;;;;21.83;4.25;;;;;;;7.52;100.00;102141.09;10628482;27;20042;-59
2021/10/22 20:42:12;;;;;;;16.30;4.30;;;;;;;7.47;100.00;102141.19;10628190;27;20051;-59
2021/10/22 20:47:15;;;;;;;11.45;4.25;;;;;;;7.23;100.00;102147.81;10628036;27;20494;-61
2021/10/22 20:57:39;;;;;;;19.10;5.22;;;;;;;7.25;100.00;102159.03;10627862;27;20051;-60
2021/10/22 21:02:42;;;;;;;22.20;5.35;;;;;;;7.38;100.00;102172.63;10627285;27;20521;-60
2021/10/22 21:07:46;;;;;;;13.70;4.40;;;;;;;7.30;100.00;102178.03;10628516;27;20109;-60
2021/10/22 21:12:49;;;;;;;22.10;5.45;;;;;;;7.17;100.00;102187.00;10626876;27;20131;-60
2021/10/22 21:17:51;;;;;;;21.67;5.15;;;;;;;6.98;100.00;102199.53;10626823;27;20043;-59
2021/10/22 21:22:53;;;;;;;19.80;6.18;;;;;;;6.98;100.00;102210.81;10608571;27;20043;-59
2021/10/22 21:27:56;;;;;;;21.30;6.50;;;;;;;7.02;100.00;102202.03;10626606;27;20058;-60
2021/10/22 21:33:00;;;;;;;11.50;5.53;;;;;;;7.20;100.00;102205.19;10626576;27;20060;-60
2021/10/22 21:38:03;;;;;;;15.43;6.03;;;;;;;7.23;100.00;102216.38;10626158;27;20051;-60
2021/10/22 21:43:06;;;;;;;17.85;6.57;;;;;;;7.21;100.00;102225.97;10625342;27;20070;-59
2021/10/22 21:48:08;;;;;;;18.90;7.50;;;;;;;7.21;100.00;102230.31;10625385;27;20055;-61
2021/10/22 21:53:11;;;;;;;16.38;7.35;;;;;;;7.37;100.00;102229.13;10625311;27;20050;-59
2021/10/22 21:58:14;;;;;;;19.80;8.15;;;;;;;7.01;100.00;102230.72;10607215;27;20051;-61
2021/10/22 22:03:17;;;;;;;19.25;8.38;;;;;;;7.03;100.00;102235.00;10625043;27;20047;-59
2021/10/22 22:08:19;;;;;;;24.00;8.07;;;;;;;7.12;100.00;102239.19;10624800;27;20051;-61
2021/10/22 22:13:21;;;;;;;14.85;6.47;;;;;;;7.13;100.00;102243.50;10624648;27;20039;-59
2021/10/22 22:18:24;;;;;;;24.27;8.98;;;;;;;6.99;100.00;102240.31;10624806;27;20043;-60
2021/10/22 22:23:27;;;;;;;15.73;6.53;;;;;;;7.03;100.00;102247.19;10624693;27;20043;-59
2021/10/22 22:28:29;;;;;;;24.60;9.52;;;;;;;6.97;100.00;102253.34;10624402;27;20502;-60
2021/10/22 22:33:32;;;;;;;28.35;10.30;;;;;;;6.79;100.00;102253.69;10624319;27;20402;-60
2021/10/22 22:38:34;;;;;;;28.50;8.45;;;;;;;7.21;100.00;102254.63;10624574;28;20051;-61
2021/10/22 22:43:38;;;;;;;23.27;10.85;;;;;;;7.04;100.00;102256.69;10624056;28;20050;-60
2021/10/22 22:48:40;;;;;;;12.13;8.93;;;;;;;7.05;100.00;102274.91;10624015;28;20044;-60
2021/10/22 22:53:42;;;;;;;23.92;10.88;;;;;;;7.24;100.00;102274.53;10623774;27;20053;-60
2021/10/22 22:58:45;;;;;;;17.30;8.90;;;;;;;7.12;100.00;102277.41;10632333;27;20405;-59
2021/10/22 23:03:47;;;;;;;17.00;8.32;;;;;;;7.10;100.00;102280.03;10632460;27;20051;-60
2021/10/22 23:08:50;;;;;;;17.48;10.68;;;;;;;6.94;100.00;102289.00;10632666;27;20049;-59
2021/10/22 23:13:52;;;;;;;19.77;9.65;;;;;;;6.90;100.00;102288.22;10631902;27;20046;-61
2021/10/22 23:18:55;;;;;;;30.27;14.00;;;;;;;6.80;100.00;102300.53;10613601;27;20047;-62
2021/10/22 23:23:57;;;;;;;26.20;11.60;;;;;;;6.76;100.00;102295.41;10631736;27;20047;-59
2021/10/22 23:29:00;;;;;;;27.13;12.98;;;;;;;6.81;100.00;102310.06;10631323;27;20051;-59
2021/10/22 23:34:02;;;;;;;20.40;11.90;;;;;;;6.70;100.00;102314.59;10630957;27;20047;-61
2021/10/22 23:39:04;;;;;;;20.92;9.90;;;;;;;6.72;100.00;102317.16;10630895;27;20047;-60
2021/10/22 23:44:07;;;;;;;17.15;9.60;;;;;;;6.70;100.00;102325.00;10630592;27;20092;-59
2021/10/22 23:49:09;;;;;;;17.58;9.60;;;;;;;6.67;100.00;102330.25;10630602;27;20082;-59
2021/10/22 23:54:11;;;;;;;15.88;9.20;;;;;;;6.75;100.00;102330.13;10630268;27;20043;-61
2021/10/22 23:59:14;;;;;;;18.08;8.65;;;;;;;6.68;100.00;102337.19;10630215;27;20043;-61
